Metar Aviation Weather Data     EGKA Shoreham Airport
Temperature
18°C Temperature
16°C Dewpoint
88% Humidity



Wind
15 MPH
24 KM/H
7 M/S
13 KTS



250°
WSW
Current Conditions

Mostly Scattered Clouds Mostly Scattered Clouds
Pressure 1015.92 (hPa) - 30 (inHg)
Visibility 6 (mile) - 9.7 (km)
Airport
Airport-code EGKA

Location: Shoreham Airport
Distance: 9 (mi)

Metar:
EGKA 221850Z 25013KT 9999 SCT013 18/16 Q1016

Time: 22-07-2024 19:50 BST